Buggenhout, Belgium
Current Conditions -  °F | °C
As of 6:20 PM on Friday 24 Oct 2014 (Local Time) from EBAW Reporting Station
Drizzle Drizzle  
Wind Chill: 54°   Ceiling: 1000
Heat Index: 54°   Visibility: 3mi
Dew Point: 52°   Wind: 8mph
Humidity: 94%   Direction: 190°S
Pressure: 30.03"   Gusts: NA
Location:  51.02°N, 4.2°E
Report Text: EBAW 241620Z 19007KT 5000 -DZ BR SCT006 BKN010 12/11 Q1017 TEMPO 3000 -DZ BKN006
Loading
Personal Weather Stations






























Interactive Weather Map
Tropical Storm Tracking
New forecast layout! Learn more

10-Day Weather Forecast

Advertisements
Track Severe Weather on mobile